PWSweather.com
Personal Weather Stations
Station Observations
KJ4AJP
Beautiful Downtown Gardner, Martin, TN 38237

Beautiful Downtown GardnerMartin, TN 38237

Lat: 36.358, Lon: -88.8994

Elevation: 384.3

Station Type: TP1080WC

http://weather.mambm.com/

High Low Average
Temperature 92.8°F33.8°C 70.2°F21.2°C 80.7°F27.1°C
Dew Point 87.8°F31.0°C 69.9°F21.1°C 78.5°F25.8°C
Winds 7.6 mph 12.2 kmh Calm Calm 2.0 mph S3.2 kmh S
Wind Gusts 24.4 mph39.3 kmh 0.7 mph1.1 kmh 6.0 mph9.7 kmh
Humidity 99% 73% 93%
Pressure 30.03 in1016.9 mb 29.83 in1010.2 mb -
Precipitation 0.80 in20.3 mm - -
Hour Temp Dew Point Humidity Winds Wind Gusts Pressure Precip Precip Rate Daily Precip Total
12:00 AM 80.1°F26.7°C 79.8°F26.6°C 99% 1.6 mph S2.6 kmh S 7.6 mph12.2 kmh 29.87 in1011.5 mb 0.00 in0.0 mm 0.00 in0.0 mm 0.00 in0.0 mm
12:15 AM 80.1°F26.7°C 79.8°F26.6°C 99% 0.7 mph S1.1 kmh S 6.0 mph9.7 kmh 29.86 in1011.2 mb 0.00 in0.0 mm 0.00 in0.0 mm 0.00 in0.0 mm
12:30 AM 80.1°F26.7°C 79.8°F26.6°C 99% 0.7 mph SSW1.1 kmh SSW 6.9 mph11.1 kmh 29.86 in1011.2 mb 0.00 in0.0 mm 0.00 in0.0 mm 0.00 in0.0 mm
12:45 AM 79.9°F26.6°C 79.6°F26.4°C 99% Calm Calm 5.4 mph8.7 kmh 29.86 in1011.2 mb 0.00 in0.0 mm 0.00 in0.0 mm 0.00 in0.0 mm
01:00 AM 79.7°F26.5°C 79.5°F26.4°C 99% 0.7 mph S1.1 kmh S 4.5 mph7.2 kmh 29.86 in1011.2 mb 0.00 in0.0 mm 0.00 in0.0 mm 0.00 in0.0 mm
01:15 AM 79.2°F26.2°C 78.9°F26.1°C 99% 1.6 mph S2.6 kmh S 5.4 mph8.7 kmh 29.86 in1011.2 mb 0.00 in0.0 mm 0.00 in0.0 mm 0.00 in0.0 mm
01:30 AM 78.8°F26.0°C 78.6°F25.9°C 99% 1.6 mph S2.6 kmh S 4.5 mph7.2 kmh 29.85 in1010.8 mb 0.00 in0.0 mm 0.00 in0.0 mm 0.00 in0.0 mm
01:45 AM 78.6°F25.9°C 78.4°F25.8°C 99% 1.6 mph S2.6 kmh S 3.8 mph6.1 kmh 29.86 in1011.2 mb 0.00 in0.0 mm 0.00 in0.0 mm 0.00 in0.0 mm
02:00 AM 78.3°F25.7°C 78.0°F25.6°C 99% 1.6 mph S2.6 kmh S 5.4 mph8.7 kmh 29.86 in1011.2 mb 0.00 in0.0 mm 0.00 in0.0 mm 0.00 in0.0 mm
02:15 AM 78.1°F25.6°C 77.8°F25.4°C 99% 0.7 mph S1.1 kmh S 3.1 mph5.0 kmh 29.86 in1011.2 mb 0.00 in0.0 mm 0.00 in0.0 mm 0.00 in0.0 mm
02:30 AM 77.9°F25.5°C 77.7°F25.4°C 99% 0.7 mph SSE1.1 kmh SSE 4.5 mph7.2 kmh 29.84 in1010.5 mb 0.00 in0.0 mm 0.00 in0.0 mm 0.00 in0.0 mm
02:45 AM 77.9°F25.5°C 77.7°F25.4°C 99% 1.6 mph S2.6 kmh S 3.8 mph6.1 kmh 29.85 in1010.8 mb 0.00 in0.0 mm 0.00 in0.0 mm 0.00 in0.0 mm
03:00 AM 77.7°F25.4°C 77.5°F25.3°C 99% 0.7 mph S1.1 kmh S 4.5 mph7.2 kmh 29.86 in1011.2 mb 0.00 in0.0 mm 0.00 in0.0 mm 0.00 in0.0 mm
03:15 AM 77.7°F25.4°C 77.5°F25.3°C 99% 0.7 mph S1.1 kmh S 3.1 mph5.0 kmh 29.85 in1010.8 mb 0.00 in0.0 mm 0.00 in0.0 mm 0.00 in0.0 mm
03:30 AM 77.7°F25.4°C 77.5°F25.3°C 99% 1.6 mph SSW2.6 kmh SSW 4.5 mph7.2 kmh 29.86 in1011.2 mb 0.00 in0.0 mm 0.00 in0.0 mm 0.00 in0.0 mm
03:45 AM 78.1°F25.6°C 77.8°F25.4°C 99% 2.2 mph S3.5 kmh S 6.0 mph9.7 kmh 29.86 in1011.2 mb 0.00 in0.0 mm 0.00 in0.0 mm 0.00 in0.0 mm
04:00 AM 78.3°F25.7°C 78.0°F25.6°C 99% 0.7 mph SW1.1 kmh SW 6.0 mph9.7 kmh 29.86 in1011.2 mb 0.00 in0.0 mm 0.00 in0.0 mm 0.00 in0.0 mm
04:15 AM 78.4°F25.8°C 78.2°F25.7°C 99% 3.1 mph SW5.0 kmh SW 4.5 mph7.2 kmh 29.86 in1011.2 mb 0.00 in0.0 mm 0.00 in0.0 mm 0.00 in0.0 mm
04:30 AM 78.4°F25.8°C 78.2°F25.7°C 99% 2.2 mph S3.5 kmh S 6.9 mph11.1 kmh 29.86 in1011.2 mb 0.00 in0.0 mm 0.00 in0.0 mm 0.00 in0.0 mm
04:45 AM 78.3°F25.7°C 78.0°F25.6°C 99% 1.6 mph SSE2.6 kmh SSE 5.4 mph8.7 kmh 29.86 in1011.2 mb 0.00 in0.0 mm 0.00 in0.0 mm 0.00 in0.0 mm
05:00 AM 78.1°F25.6°C 77.8°F25.4°C 99% 1.6 mph SSE2.6 kmh SSE 4.5 mph7.2 kmh 29.86 in1011.2 mb 0.00 in0.0 mm 0.00 in0.0 mm 0.00 in0.0 mm
05:15 AM 78.1°F25.6°C 77.8°F25.4°C 99% 1.6 mph S2.6 kmh S 3.8 mph6.1 kmh 29.86 in1011.2 mb 0.00 in0.0 mm 0.00 in0.0 mm 0.00 in0.0 mm
05:30 AM 78.3°F25.7°C 78.0°F25.6°C 99% 0.7 mph SSW1.1 kmh SSW 7.6 mph12.2 kmh 29.86 in1011.2 mb 0.00 in0.0 mm 0.00 in0.0 mm 0.00 in0.0 mm
05:45 AM 78.8°F26.0°C 78.6°F25.9°C 99% 2.2 mph SW3.5 kmh SW 6.9 mph11.1 kmh 29.87 in1011.5 mb 0.00 in0.0 mm 0.00 in0.0 mm 0.00 in0.0 mm
06:00 AM 79.3°F26.3°C 79.1°F26.2°C 99% 1.6 mph SW2.6 kmh SW 8.3 mph13.4 kmh 29.88 in1011.9 mb 0.00 in0.0 mm 0.00 in0.0 mm 0.00 in0.0 mm
06:15 AM 79.7°F26.5°C 79.5°F26.4°C 99% 3.1 mph SSW5.0 kmh SSW 8.3 mph13.4 kmh 29.88 in1011.9 mb 0.00 in0.0 mm 0.00 in0.0 mm 0.00 in0.0 mm
06:30 AM 80.2°F26.8°C 80.0°F26.7°C 99% 3.8 mph SW6.1 kmh SW 8.3 mph13.4 kmh 29.88 in1011.9 mb 0.00 in0.0 mm 0.00 in0.0 mm 0.00 in0.0 mm
06:45 AM 81.0°F27.2°C 80.7°F27.1°C 99% 3.8 mph SW6.1 kmh SW 8.3 mph13.4 kmh 29.88 in1011.9 mb 0.00 in0.0 mm 0.00 in0.0 mm 0.00 in0.0 mm
07:00 AM 81.5°F27.5°C 81.3°F27.4°C 99% 2.2 mph SW3.5 kmh SW 10.7 mph17.2 kmh 29.88 in1011.9 mb 0.00 in0.0 mm 0.00 in0.0 mm 0.00 in0.0 mm
07:15 AM 82.2°F27.9°C 81.7°F27.6°C 98% 3.8 mph SW6.1 kmh SW 9.2 mph14.8 kmh 29.89 in1012.2 mb 0.00 in0.0 mm 0.00 in0.0 mm 0.00 in0.0 mm
07:30 AM 83.1°F28.4°C 81.9°F27.7°C 96% 6.9 mph WSW11.1 kmh WSW 14.5 mph23.3 kmh 29.89 in1012.2 mb 0.00 in0.0 mm 0.00 in0.0 mm 0.00 in0.0 mm
07:45 AM 84.2°F29.0°C 83.0°F28.3°C 96% 7.6 mph SW12.2 kmh SW 10.7 mph17.2 kmh 29.89 in1012.2 mb 0.00 in0.0 mm 0.00 in0.0 mm 0.00 in0.0 mm
08:00 AM 84.6°F29.2°C 82.7°F28.2°C 94% 0.7 mph W1.1 kmh W 9.2 mph14.8 kmh 29.90 in1012.5 mb 0.00 in0.0 mm 0.00 in0.0 mm 0.00 in0.0 mm
08:15 AM 83.8°F28.8°C 82.0°F27.8°C 94% 3.8 mph SW6.1 kmh SW 9.2 mph14.8 kmh 29.90 in1012.5 mb 0.00 in0.0 mm 0.00 in0.0 mm 0.00 in0.0 mm
08:30 AM 84.6°F29.2°C 83.1°F28.4°C 95% 3.8 mph SW6.1 kmh SW 8.3 mph13.4 kmh 29.89 in1012.2 mb 0.00 in0.0 mm 0.00 in0.0 mm 0.00 in0.0 mm
08:45 AM 86.7°F30.4°C 84.5°F29.2°C 93% 3.1 mph SW5.0 kmh SW 8.3 mph13.4 kmh 29.89 in1012.2 mb 0.00 in0.0 mm 0.00 in0.0 mm 0.00 in0.0 mm
09:00 AM 88.5°F31.4°C 86.3°F30.2°C 93% 3.1 mph WSW5.0 kmh WSW 10.7 mph17.2 kmh 29.87 in1011.5 mb 0.00 in0.0 mm 0.00 in0.0 mm 0.00 in0.0 mm
09:15 AM 89.6°F32.0°C 85.7°F29.8°C 88% 5.4 mph W8.7 kmh W 11.4 mph18.3 kmh 29.87 in1011.5 mb 0.00 in0.0 mm 0.00 in0.0 mm 0.00 in0.0 mm
09:30 AM 90.7°F32.6°C 86.4°F30.2°C 87% 3.8 mph WSW6.1 kmh WSW 14.5 mph23.3 kmh 29.88 in1011.9 mb 0.00 in0.0 mm 0.00 in0.0 mm 0.00 in0.0 mm
09:45 AM 91.8°F33.2°C 87.4°F30.8°C 87% 1.6 mph SW2.6 kmh SW 9.8 mph15.8 kmh 29.89 in1012.2 mb 0.00 in0.0 mm 0.00 in0.0 mm 0.00 in0.0 mm
10:00 AM 92.8°F33.8°C 87.8°F31.0°C 85% 1.6 mph NW2.6 kmh NW 10.7 mph17.2 kmh 29.89 in1012.2 mb 0.00 in0.0 mm 0.00 in0.0 mm 0.00 in0.0 mm
10:15 AM 91.9°F33.3°C 85.8°F29.9°C 82% 4.5 mph NW7.2 kmh NW 23.5 mph37.8 kmh 29.90 in1012.5 mb 0.00 in0.0 mm 0.00 in0.0 mm 0.00 in0.0 mm
10:30 AM 87.4°F30.8°C 77.8°F25.4°C 73% 4.5 mph N7.2 kmh N 13.0 mph20.9 kmh 29.88 in1011.9 mb 0.00 in0.0 mm 0.00 in0.0 mm 0.00 in0.0 mm
10:45 AM 84.9°F29.4°C 77.0°F25.0°C 77% 0.7 mph WNW1.1 kmh WNW 6.9 mph11.1 kmh 29.86 in1011.2 mb 0.00 in0.0 mm 0.00 in0.0 mm 0.00 in0.0 mm
11:00 AM 82.6°F28.1°C 74.7°F23.7°C 77% 0.7 mph SSW1.1 kmh SSW 12.1 mph19.5 kmh 29.86 in1011.2 mb 0.00 in0.0 mm 0.00 in0.0 mm 0.00 in0.0 mm
11:15 AM 81.3°F27.4°C 75.4°F24.1°C 82% Calm Calm 3.1 mph5.0 kmh 29.87 in1011.5 mb 0.00 in0.0 mm 0.00 in0.0 mm 0.00 in0.0 mm
11:30 AM 80.6°F27.0°C 75.4°F24.1°C 84% 0.7 mph NNE1.1 kmh NNE 2.2 mph3.5 kmh 29.86 in1011.2 mb 0.00 in0.0 mm 0.00 in0.0 mm 0.00 in0.0 mm
11:45 AM 79.7°F26.5°C 75.2°F24.0°C 86% 3.8 mph NE6.1 kmh NE 8.3 mph13.4 kmh 29.89 in1012.2 mb 0.00 in0.0 mm 0.00 in0.0 mm 0.00 in0.0 mm
12:00 PM 78.6°F25.9°C 74.5°F23.6°C 87% Calm Calm 4.5 mph7.2 kmh 29.87 in1011.5 mb 0.00 in0.0 mm 0.00 in0.0 mm 0.00 in0.0 mm
12:15 PM 78.4°F25.8°C 75.0°F23.9°C 89% 0.7 mph E1.1 kmh E 3.8 mph6.1 kmh 29.87 in1011.5 mb 0.00 in0.0 mm 0.00 in0.0 mm 0.00 in0.0 mm
12:30 PM 78.1°F25.6°C 75.0°F23.9°C 90% 2.2 mph N3.5 kmh N 5.4 mph8.7 kmh 29.88 in1011.9 mb 0.00 in0.0 mm 0.00 in0.0 mm 0.00 in0.0 mm
12:45 PM 77.7°F25.4°C 74.6°F23.7°C 90% 1.6 mph NNE2.6 kmh NNE 7.6 mph12.2 kmh 29.91 in1012.9 mb 0.00 in0.0 mm 0.00 in0.0 mm 0.00 in0.0 mm
01:00 PM 77.9°F25.5°C 75.1°F23.9°C 91% 1.6 mph N2.6 kmh N 6.0 mph9.7 kmh 29.93 in1013.5 mb 0.00 in0.0 mm 0.00 in0.0 mm 0.00 in0.0 mm
01:15 PM 78.3°F25.7°C 75.8°F24.3°C 92% 0.7 mph N1.1 kmh N 3.8 mph6.1 kmh 29.93 in1013.5 mb 0.00 in0.0 mm 0.00 in0.0 mm 0.00 in0.0 mm
01:30 PM 79.3°F26.3°C 76.9°F24.9°C 92% 0.7 mph SE1.1 kmh SE 2.2 mph3.5 kmh 29.91 in1012.9 mb 0.00 in0.0 mm 0.00 in0.0 mm 0.00 in0.0 mm
01:45 PM 80.2°F26.8°C 77.8°F25.4°C 92% 0.7 mph ESE1.1 kmh ESE 2.2 mph3.5 kmh 29.91 in1012.9 mb 0.00 in0.0 mm 0.00 in0.0 mm 0.00 in0.0 mm
02:00 PM 80.4°F26.9°C 77.6°F25.3°C 91% Calm Calm 7.6 mph12.2 kmh 29.90 in1012.5 mb 0.00 in0.0 mm 0.00 in0.0 mm 0.00 in0.0 mm
02:15 PM 81.3°F27.4°C 78.2°F25.7°C 90% 1.6 mph ESE2.6 kmh ESE 5.4 mph8.7 kmh 29.90 in1012.5 mb 0.00 in0.0 mm 0.00 in0.0 mm 0.00 in0.0 mm
02:30 PM 82.6°F28.1°C 78.7°F25.9°C 88% 0.7 mph NNE1.1 kmh NNE 4.5 mph7.2 kmh 29.91 in1012.9 mb 0.00 in0.0 mm 0.00 in0.0 mm 0.00 in0.0 mm
02:45 PM 83.8°F28.8°C 79.6°F26.4°C 87% Calm Calm 4.5 mph7.2 kmh 29.91 in1012.9 mb 0.00 in0.0 mm 0.00 in0.0 mm 0.00 in0.0 mm
03:00 PM 85.1°F29.5°C 79.8°F26.6°C 84% 2.2 mph SSE3.5 kmh SSE 3.8 mph6.1 kmh 29.90 in1012.5 mb 0.00 in0.0 mm 0.00 in0.0 mm 0.00 in0.0 mm
03:15 PM 86.2°F30.1°C 80.9°F27.2°C 84% 0.7 mph SE1.1 kmh SE 3.8 mph6.1 kmh 29.90 in1012.5 mb 0.00 in0.0 mm 0.00 in0.0 mm 0.00 in0.0 mm
03:30 PM 86.5°F30.3°C 81.2°F27.3°C 84% 0.7 mph S1.1 kmh S 6.0 mph9.7 kmh 29.90 in1012.5 mb 0.00 in0.0 mm 0.00 in0.0 mm 0.00 in0.0 mm
03:45 PM 87.3°F30.7°C 81.9°F27.7°C 84% Calm Calm 3.8 mph6.1 kmh 29.89 in1012.2 mb 0.00 in0.0 mm 0.00 in0.0 mm 0.00 in0.0 mm
04:00 PM 88.2°F31.2°C 82.4°F28.0°C 83% 0.7 mph NE1.1 kmh NE 3.8 mph6.1 kmh 29.89 in1012.2 mb 0.00 in0.0 mm 0.00 in0.0 mm 0.00 in0.0 mm
04:15 PM 89.4°F31.9°C 83.3°F28.5°C 82% 1.6 mph SE2.6 kmh SE 5.4 mph8.7 kmh 29.89 in1012.2 mb 0.00 in0.0 mm 0.00 in0.0 mm 0.00 in0.0 mm
04:30 PM 89.4°F31.9°C 83.3°F28.5°C 82% 1.6 mph SE2.6 kmh SE 4.5 mph7.2 kmh 29.89 in1012.2 mb 0.00 in0.0 mm 0.00 in0.0 mm 0.00 in0.0 mm
04:45 PM 89.1°F31.7°C 83.7°F28.7°C 84% 2.2 mph S3.5 kmh S 6.0 mph9.7 kmh 29.88 in1011.9 mb 0.00 in0.0 mm 0.00 in0.0 mm 0.00 in0.0 mm
05:00 PM 88.5°F31.4°C 83.5°F28.6°C 85% 1.6 mph SSE2.6 kmh SSE 4.5 mph7.2 kmh 29.86 in1011.2 mb 0.00 in0.0 mm 0.00 in0.0 mm 0.00 in0.0 mm
05:15 PM 83.1°F28.4°C 78.6°F25.9°C 86% 2.2 mph S3.5 kmh S 4.5 mph7.2 kmh 29.86 in1011.2 mb 0.00 in0.0 mm 0.00 in0.0 mm 0.00 in0.0 mm
05:30 PM 87.8°F31.0°C 83.5°F28.6°C 87% 0.7 mph S1.1 kmh S 6.0 mph9.7 kmh 29.85 in1010.8 mb 0.00 in0.0 mm 0.00 in0.0 mm 0.00 in0.0 mm
05:45 PM 75.4°F24.1°C 71.6°F22.0°C 88% 1.6 mph WSW2.6 kmh WSW 5.4 mph8.7 kmh 29.84 in1010.5 mb 0.00 in0.0 mm 0.00 in0.0 mm 0.00 in0.0 mm
06:00 PM 86.9°F30.5°C 83.0°F28.3°C 88% 0.7 mph SSW1.1 kmh SSW 5.4 mph8.7 kmh 29.83 in1010.2 mb 0.00 in0.0 mm 0.00 in0.0 mm 0.00 in0.0 mm
06:15 PM 86.5°F30.3°C 83.0°F28.3°C 89% Calm Calm 3.8 mph6.1 kmh 29.84 in1010.5 mb 0.00 in0.0 mm 0.00 in0.0 mm 0.00 in0.0 mm
06:30 PM 86.2°F30.1°C 83.0°F28.3°C 90% 0.7 mph S1.1 kmh S 3.8 mph6.1 kmh 29.86 in1011.2 mb 0.00 in0.0 mm 0.00 in0.0 mm 0.00 in0.0 mm
06:45 PM 85.6°F29.8°C 83.1°F28.4°C 92% 0.7 mph NE1.1 kmh NE 2.2 mph3.5 kmh 29.88 in1011.9 mb 0.00 in0.0 mm 0.00 in0.0 mm 0.00 in0.0 mm
07:00 PM 84.7°F29.3°C 82.6°F28.1°C 93% Calm Calm 0.7 mph1.1 kmh 29.90 in1012.5 mb 0.00 in0.0 mm 0.00 in0.0 mm 0.00 in0.0 mm
07:15 PM 84.0°F28.9°C 82.5°F28.1°C 95% Calm Calm 1.6 mph2.6 kmh 29.90 in1012.5 mb 0.00 in0.0 mm 0.00 in0.0 mm 0.00 in0.0 mm
07:30 PM 83.5°F28.6°C 82.3°F27.9°C 96% 0.7 mph SE1.1 kmh SE 3.8 mph6.1 kmh 29.90 in1012.5 mb 0.00 in0.0 mm 0.00 in0.0 mm 0.00 in0.0 mm
07:45 PM 82.8°F28.2°C 81.6°F27.6°C 96% 1.6 mph SSE2.6 kmh SSE 4.5 mph7.2 kmh 29.92 in1013.2 mb 0.00 in0.0 mm 0.00 in0.0 mm 0.00 in0.0 mm
08:00 PM 82.4°F28.0°C 81.5°F27.5°C 97% 0.7 mph E1.1 kmh E 3.1 mph5.0 kmh 29.93 in1013.5 mb 0.00 in0.0 mm 0.00 in0.0 mm 0.00 in0.0 mm
08:15 PM 81.1°F27.3°C 76.6°F24.8°C 86% 2.2 mph NNE3.5 kmh NNE 24.4 mph39.3 kmh 29.99 in1015.6 mb 0.00 in0.0 mm 0.00 in0.0 mm 0.00 in0.0 mm
08:30 PM 77.4°F25.2°C 73.6°F23.1°C 88% 4.5 mph NE7.2 kmh NE 17.4 mph28.0 kmh 30.00 in1015.9 mb 0.20 in5.1 mm 0.80 in20.3 mm 0.20 in5.1 mm
08:45 PM 73.0°F22.8°C 71.6°F22.0°C 95% 2.2 mph N3.5 kmh N 14.5 mph23.3 kmh 29.98 in1015.2 mb 0.65 in16.5 mm 1.80 in45.7 mm 0.65 in16.5 mm
09:00 PM 71.4°F21.9°C 71.2°F21.8°C 99% 2.2 mph NW3.5 kmh NW 8.3 mph13.4 kmh 30.02 in1016.6 mb 0.73 in18.5 mm 0.11 in2.8 mm 0.73 in18.5 mm
09:15 PM 70.9°F21.6°C 70.6°F21.4°C 99% 0.7 mph NE1.1 kmh NE 4.5 mph7.2 kmh 30.03 in1016.9 mb 0.76 in19.3 mm 0.12 in3.0 mm 0.76 in19.3 mm
09:30 PM 70.5°F21.4°C 70.3°F21.3°C 99% Calm Calm 3.8 mph6.1 kmh 30.03 in1016.9 mb 0.56 in14.2 mm 0.00 in0.0 mm 0.76 in19.3 mm
09:45 PM 70.3°F21.3°C 70.1°F21.2°C 99% Calm Calm 1.6 mph2.6 kmh 30.00 in1015.9 mb 0.11 in2.8 mm 0.00 in0.0 mm 0.77 in19.6 mm
10:00 PM 70.3°F21.3°C 70.1°F21.2°C 99% Calm Calm 1.6 mph2.6 kmh 30.00 in1015.9 mb 0.02 in0.5 mm 0.00 in0.0 mm 0.77 in19.6 mm
10:15 PM 70.5°F21.4°C 70.3°F21.3°C 99% Calm Calm 2.2 mph3.5 kmh 30.00 in1015.9 mb 0.01 in0.3 mm 0.00 in0.0 mm 0.77 in19.6 mm
10:30 PM 70.3°F21.3°C 70.1°F21.2°C 99% Calm Calm 1.6 mph2.6 kmh 30.00 in1015.9 mb 0.04 in1.0 mm 0.12 in3.0 mm 0.79 in20.1 mm
10:45 PM 70.3°F21.3°C 70.1°F21.2°C 99% Calm Calm 1.6 mph2.6 kmh 30.01 in1016.3 mb 0.04 in1.0 mm 0.00 in0.0 mm 0.80 in20.3 mm
11:00 PM 70.3°F21.3°C 70.1°F21.2°C 99% Calm Calm 1.6 mph2.6 kmh 30.00 in1015.9 mb 0.05 in1.3 mm 0.01 in0.3 mm 0.80 in20.3 mm
11:15 PM 70.3°F21.3°C 70.1°F21.2°C 99% 0.7 mph WSW1.1 kmh WSW 3.8 mph6.1 kmh 30.00 in1015.9 mb 0.05 in1.3 mm 0.00 in0.0 mm 0.80 in20.3 mm
11:30 PM 70.3°F21.3°C 70.1°F21.2°C 99% 0.7 mph SW1.1 kmh SW 5.4 mph8.7 kmh 29.98 in1015.2 mb 0.02 in0.5 mm 0.00 in0.0 mm 0.80 in20.3 mm
11:45 PM 70.2°F21.2°C 69.9°F21.1°C 99% 1.6 mph S2.6 kmh S 3.8 mph6.1 kmh 29.95 in1014.2 mb 0.02 in0.5 mm 0.00 in0.0 mm 0.01 in0.3 mm